sensor_id;sensor_type;location;lat;lon;timestamp;P1;durP1;ratioP1;P2;durP2;ratioP2
8281;SDS011;25606;42.686;23.136;2023-07-31T00:02:12;6.47;;;5.97;;
8281;SDS011;25606;42.686;23.136;2023-07-31T00:04:40;7.57;;;6.87;;
8281;SDS011;25606;42.686;23.136;2023-07-31T00:07:07;7.37;;;6.77;;
8281;SDS011;25606;42.686;23.136;2023-07-31T00:09:34;7.67;;;7.07;;
8281;SDS011;25606;42.686;23.136;2023-07-31T00:12:02;7.53;;;6.77;;
8281;SDS011;25606;42.686;23.136;2023-07-31T00:14:30;7.60;;;6.90;;
8281;SDS011;25606;42.686;23.136;2023-07-31T00:16:58;8.60;;;7.80;;
8281;SDS011;25606;42.686;23.136;2023-07-31T00:19:25;7.87;;;7.27;;
8281;SDS011;25606;42.686;23.136;2023-07-31T00:21:52;8.10;;;7.40;;
8281;SDS011;25606;42.686;23.136;2023-07-31T00:24:20;8.70;;;7.90;;
8281;SDS011;25606;42.686;23.136;2023-07-31T00:26:47;8.67;;;7.93;;
8281;SDS011;25606;42.686;23.136;2023-07-31T00:29:14;9.67;;;8.80;;
8281;SDS011;25606;42.686;23.136;2023-07-31T00:31:43;11.07;;;10.00;;
8281;SDS011;25606;42.686;23.136;2023-07-31T00:34:10;11.30;;;10.30;;
8281;SDS011;25606;42.686;23.136;2023-07-31T00:36:38;12.20;;;11.10;;
8281;SDS011;25606;42.686;23.136;2023-07-31T00:39:05;11.20;;;10.20;;
8281;SDS011;25606;42.686;23.136;2023-07-31T00:41:32;11.27;;;10.30;;
8281;SDS011;25606;42.686;23.136;2023-07-31T00:44:00;14.37;;;11.27;;
8281;SDS011;25606;42.686;23.136;2023-07-31T00:46:27;12.00;;;10.97;;
8281;SDS011;25606;42.686;23.136;2023-07-31T00:48:56;12.37;;;11.27;;
8281;SDS011;25606;42.686;23.136;2023-07-31T00:51:23;12.77;;;11.47;;
8281;SDS011;25606;42.686;23.136;2023-07-31T00:53:50;12.50;;;11.30;;
8281;SDS011;25606;42.686;23.136;2023-07-31T00:56:19;12.40;;;11.30;;
8281;SDS011;25606;42.686;23.136;2023-07-31T00:58:46;13.93;;;12.70;;
8281;SDS011;25606;42.686;23.136;2023-07-31T01:01:13;13.87;;;12.47;;
8281;SDS011;25606;42.686;23.136;2023-07-31T01:03:41;14.90;;;13.57;;
8281;SDS011;25606;42.686;23.136;2023-07-31T01:06:13;17.40;;;15.80;;
8281;SDS011;25606;42.686;23.136;2023-07-31T01:08:42;20.23;;;18.23;;
8281;SDS011;25606;42.686;23.136;2023-07-31T01:11:17;20.37;;;18.47;;
8281;SDS011;25606;42.686;23.136;2023-07-31T01:13:46;20.53;;;18.57;;
8281;SDS011;25606;42.686;23.136;2023-07-31T01:16:14;21.67;;;19.47;;
8281;SDS011;25606;42.686;23.136;2023-07-31T01:18:41;20.80;;;18.50;;
8281;SDS011;25606;42.686;23.136;2023-07-31T01:21:15;22.73;;;20.50;;
8281;SDS011;25606;42.686;23.136;2023-07-31T01:24:07;21.07;;;18.97;;
8281;SDS011;25606;42.686;23.136;2023-07-31T01:26:38;23.03;;;20.80;;
8281;SDS011;25606;42.686;23.136;2023-07-31T01:29:07;23.40;;;21.00;;
8281;SDS011;25606;42.686;23.136;2023-07-31T01:31:35;22.70;;;20.40;;
8281;SDS011;25606;42.686;23.136;2023-07-31T01:34:03;22.30;;;19.77;;
8281;SDS011;25606;42.686;23.136;2023-07-31T01:36:31;22.17;;;19.97;;
8281;SDS011;25606;42.686;23.136;2023-07-31T01:38:58;23.57;;;21.13;;
8281;SDS011;25606;42.686;23.136;2023-07-31T01:41:26;21.97;;;19.77;;
8281;SDS011;25606;42.686;23.136;2023-07-31T01:43:55;23.57;;;21.07;;
8281;SDS011;25606;42.686;23.136;2023-07-31T01:46:22;22.13;;;19.93;;
8281;SDS011;25606;42.686;23.136;2023-07-31T01:48:49;21.83;;;19.73;;
8281;SDS011;25606;42.686;23.136;2023-07-31T01:51:16;22.63;;;20.33;;
8281;SDS011;25606;42.686;23.136;2023-07-31T01:53:44;23.07;;;20.77;;
8281;SDS011;25606;42.686;23.136;2023-07-31T01:56:11;21.67;;;19.57;;
8281;SDS011;25606;42.686;23.136;2023-07-31T01:58:38;21.67;;;19.63;;
8281;SDS011;25606;42.686;23.136;2023-07-31T02:01:07;22.27;;;20.20;;
8281;SDS011;25606;42.686;23.136;2023-07-31T02:03:34;22.17;;;20.00;;
8281;SDS011;25606;42.686;23.136;2023-07-31T02:06:01;20.73;;;18.77;;
8281;SDS011;25606;42.686;23.136;2023-07-31T02:08:29;22.33;;;20.07;;
8281;SDS011;25606;42.686;23.136;2023-07-31T02:10:56;21.53;;;19.50;;
8281;SDS011;25606;42.686;23.136;2023-07-31T02:13:23;21.23;;;19.07;;
8281;SDS011;25606;42.686;23.136;2023-07-31T02:15:51;21.73;;;19.63;;
8281;SDS011;25606;42.686;23.136;2023-07-31T02:18:20;22.03;;;19.87;;
8281;SDS011;25606;42.686;23.136;2023-07-31T02:20:49;21.70;;;19.70;;
8281;SDS011;25606;42.686;23.136;2023-07-31T02:23:16;22.40;;;20.07;;
8281;SDS011;25606;42.686;23.136;2023-07-31T02:25:43;25.03;;;22.63;;
8281;SDS011;25606;42.686;23.136;2023-07-31T02:28:11;22.73;;;20.47;;
8281;SDS011;25606;42.686;23.136;2023-07-31T02:30:38;25.57;;;22.27;;
8281;SDS011;25606;42.686;23.136;2023-07-31T02:33:05;24.53;;;22.13;;
8281;SDS011;25606;42.686;23.136;2023-07-31T02:35:34;22.10;;;19.93;;
8281;SDS011;25606;42.686;23.136;2023-07-31T02:38:01;23.13;;;20.93;;
8281;SDS011;25606;42.686;23.136;2023-07-31T02:40:28;23.63;;;21.20;;
8281;SDS011;25606;42.686;23.136;2023-07-31T02:42:56;22.40;;;20.33;;
8281;SDS011;25606;42.686;23.136;2023-07-31T02:45:23;22.90;;;20.70;;
8281;SDS011;25606;42.686;23.136;2023-07-31T02:47:50;23.40;;;21.10;;
8281;SDS011;25606;42.686;23.136;2023-07-31T02:50:18;22.10;;;19.87;;
8281;SDS011;25606;42.686;23.136;2023-07-31T02:52:46;21.97;;;19.87;;
8281;SDS011;25606;42.686;23.136;2023-07-31T02:55:14;21.37;;;19.23;;
8281;SDS011;25606;42.686;23.136;2023-07-31T02:57:41;22.03;;;19.83;;
8281;SDS011;25606;42.686;23.136;2023-07-31T03:00:08;20.17;;;18.17;;
8281;SDS011;25606;42.686;23.136;2023-07-31T03:02:36;20.40;;;18.40;;
8281;SDS011;25606;42.686;23.136;2023-07-31T03:05:03;21.87;;;19.67;;
8281;SDS011;25606;42.686;23.136;2023-07-31T03:07:31;22.83;;;20.47;;
8281;SDS011;25606;42.686;23.136;2023-07-31T03:09:59;22.23;;;20.00;;
8281;SDS011;25606;42.686;23.136;2023-07-31T03:12:27;22.50;;;20.30;;
8281;SDS011;25606;42.686;23.136;2023-07-31T03:14:54;22.07;;;19.87;;
8281;SDS011;25606;42.686;23.136;2023-07-31T03:17:21;21.73;;;19.40;;
8281;SDS011;25606;42.686;23.136;2023-07-31T03:19:48;22.93;;;20.57;;
8281;SDS011;25606;42.686;23.136;2023-07-31T03:22:16;22.60;;;20.23;;
8281;SDS011;25606;42.686;23.136;2023-07-31T03:24:43;23.70;;;21.30;;
8281;SDS011;25606;42.686;23.136;2023-07-31T03:27:12;24.30;;;21.83;;
8281;SDS011;25606;42.686;23.136;2023-07-31T03:29:39;24.07;;;21.53;;
8281;SDS011;25606;42.686;23.136;2023-07-31T03:32:06;22.97;;;20.60;;
8281;SDS011;25606;42.686;23.136;2023-07-31T03:34:34;24.67;;;22.07;;
8281;SDS011;25606;42.686;23.136;2023-07-31T03:37:01;25.77;;;23.07;;
8281;SDS011;25606;42.686;23.136;2023-07-31T03:39:30;26.80;;;23.90;;
8281;SDS011;25606;42.686;23.136;2023-07-31T03:41:57;26.83;;;23.23;;
8281;SDS011;25606;42.686;23.136;2023-07-31T03:44:26;25.83;;;23.13;;
8281;SDS011;25606;42.686;23.136;2023-07-31T03:46:53;24.80;;;21.87;;
8281;SDS011;25606;42.686;23.136;2023-07-31T03:49:20;24.43;;;21.40;;
8281;SDS011;25606;42.686;23.136;2023-07-31T03:51:47;24.03;;;21.07;;
8281;SDS011;25606;42.686;23.136;2023-07-31T03:54:15;22.47;;;20.23;;
8281;SDS011;25606;42.686;23.136;2023-07-31T03:56:42;22.63;;;20.23;;
8281;SDS011;25606;42.686;23.136;2023-07-31T03:59:09;25.70;;;22.90;;
8281;SDS011;25606;42.686;23.136;2023-07-31T04:01:38;26.77;;;22.17;;
8281;SDS011;25606;42.686;23.136;2023-07-31T04:04:05;23.40;;;21.00;;
8281;SDS011;25606;42.686;23.136;2023-07-31T04:06:32;23.87;;;21.40;;
8281;SDS011;25606;42.686;23.136;2023-07-31T04:09:00;24.10;;;21.63;;
8281;SDS011;25606;42.686;23.136;2023-07-31T04:11:27;24.77;;;21.67;;
8281;SDS011;25606;42.686;23.136;2023-07-31T04:13:54;24.37;;;21.73;;
8281;SDS011;25606;42.686;23.136;2023-07-31T04:16:21;23.93;;;21.60;;
8281;SDS011;25606;42.686;23.136;2023-07-31T04:18:50;24.07;;;21.60;;
8281;SDS011;25606;42.686;23.136;2023-07-31T04:21:17;21.93;;;19.60;;
8281;SDS011;25606;42.686;23.136;2023-07-31T04:23:45;23.63;;;21.03;;
8281;SDS011;25606;42.686;23.136;2023-07-31T04:26:12;21.70;;;19.53;;
8281;SDS011;25606;42.686;23.136;2023-07-31T04:28:39;22.63;;;20.30;;
8281;SDS011;25606;42.686;23.136;2023-07-31T04:31:06;22.33;;;19.97;;
8281;SDS011;25606;42.686;23.136;2023-07-31T04:33:34;21.53;;;19.37;;
8281;SDS011;25606;42.686;23.136;2023-07-31T04:36:02;22.77;;;20.37;;
8281;SDS011;25606;42.686;23.136;2023-07-31T04:38:30;21.53;;;19.33;;
8281;SDS011;25606;42.686;23.136;2023-07-31T04:40:57;21.47;;;19.27;;
8281;SDS011;25606;42.686;23.136;2023-07-31T04:43:24;21.00;;;18.90;;
8281;SDS011;25606;42.686;23.136;2023-07-31T04:45:51;19.80;;;17.83;;
8281;SDS011;25606;42.686;23.136;2023-07-31T04:48:19;19.73;;;17.80;;
8281;SDS011;25606;42.686;23.136;2023-07-31T04:50:46;18.67;;;16.67;;
8281;SDS011;25606;42.686;23.136;2023-07-31T04:53:15;19.03;;;17.13;;
8281;SDS011;25606;42.686;23.136;2023-07-31T04:55:42;17.77;;;16.03;;
8281;SDS011;25606;42.686;23.136;2023-07-31T04:58:09;17.87;;;15.27;;
8281;SDS011;25606;42.686;23.136;2023-07-31T05:00:37;18.00;;;16.17;;
8281;SDS011;25606;42.686;23.136;2023-07-31T05:03:04;17.27;;;15.57;;
8281;SDS011;25606;42.686;23.136;2023-07-31T05:05:32;17.33;;;15.53;;
8281;SDS011;25606;42.686;23.136;2023-07-31T05:07:59;17.77;;;15.93;;
8281;SDS011;25606;42.686;23.136;2023-07-31T05:10:27;15.93;;;14.33;;
8281;SDS011;25606;42.686;23.136;2023-07-31T05:12:55;16.27;;;14.57;;
8281;SDS011;25606;42.686;23.136;2023-07-31T05:15:22;15.53;;;13.97;;
8281;SDS011;25606;42.686;23.136;2023-07-31T05:17:49;15.67;;;14.10;;
8281;SDS011;25606;42.686;23.136;2023-07-31T05:20:17;14.97;;;13.47;;
8281;SDS011;25606;42.686;23.136;2023-07-31T05:22:44;15.03;;;13.53;;
8281;SDS011;25606;42.686;23.136;2023-07-31T05:25:11;15.03;;;13.60;;
8281;SDS011;25606;42.686;23.136;2023-07-31T05:27:40;14.03;;;12.63;;
8281;SDS011;25606;42.686;23.136;2023-07-31T05:30:08;12.93;;;11.67;;
8281;SDS011;25606;42.686;23.136;2023-07-31T05:32:35;13.90;;;11.23;;
8281;SDS011;25606;42.686;23.136;2023-07-31T05:35:03;12.07;;;10.33;;
8281;SDS011;25606;42.686;23.136;2023-07-31T05:37:30;10.87;;;9.37;;
8281;SDS011;25606;42.686;23.136;2023-07-31T05:39:58;10.43;;;8.97;;
8281;SDS011;25606;42.686;23.136;2023-07-31T05:42:25;9.63;;;8.60;;
8281;SDS011;25606;42.686;23.136;2023-07-31T05:44:54;10.13;;;8.87;;
8281;SDS011;25606;42.686;23.136;2023-07-31T05:47:21;10.47;;;8.63;;
8281;SDS011;25606;42.686;23.136;2023-07-31T05:49:48;11.50;;;9.33;;
8281;SDS011;25606;42.686;23.136;2023-07-31T05:52:17;12.07;;;8.47;;
8281;SDS011;25606;42.686;23.136;2023-07-31T05:54:45;9.23;;;7.93;;
8281;SDS011;25606;42.686;23.136;2023-07-31T05:57:12;10.73;;;7.33;;
8281;SDS011;25606;42.686;23.136;2023-07-31T05:59:39;9.17;;;6.97;;
8281;SDS011;25606;42.686;23.136;2023-07-31T06:02:08;7.93;;;6.47;;
8281;SDS011;25606;42.686;23.136;2023-07-31T06:04:35;8.33;;;6.40;;
8281;SDS011;25606;42.686;23.136;2023-07-31T06:07:03;9.53;;;7.03;;
8281;SDS011;25606;42.686;23.136;2023-07-31T06:09:30;8.47;;;6.47;;
8281;SDS011;25606;42.686;23.136;2023-07-31T06:11:57;7.53;;;6.30;;
8281;SDS011;25606;42.686;23.136;2023-07-31T06:14:25;7.03;;;5.90;;
8281;SDS011;25606;42.686;23.136;2023-07-31T06:16:52;6.73;;;5.67;;
8281;SDS011;25606;42.686;23.136;2023-07-31T06:19:21;7.77;;;5.93;;
8281;SDS011;25606;42.686;23.136;2023-07-31T06:21:48;7.40;;;5.60;;
8281;SDS011;25606;42.686;23.136;2023-07-31T06:24:16;8.30;;;6.13;;
8281;SDS011;25606;42.686;23.136;2023-07-31T06:26:45;7.53;;;5.13;;
8281;SDS011;25606;42.686;23.136;2023-07-31T06:29:12;19.57;;;8.60;;
8281;SDS011;25606;42.686;23.136;2023-07-31T06:31:40;10.03;;;5.70;;
8281;SDS011;25606;42.686;23.136;2023-07-31T06:34:09;7.67;;;5.80;;
8281;SDS011;25606;42.686;23.136;2023-07-31T06:36:37;9.20;;;7.73;;
8281;SDS011;25606;42.686;23.136;2023-07-31T06:39:04;8.10;;;4.80;;
8281;SDS011;25606;42.686;23.136;2023-07-31T06:41:32;8.77;;;4.97;;
8281;SDS011;25606;42.686;23.136;2023-07-31T06:43:59;10.23;;;6.30;;
8281;SDS011;25606;42.686;23.136;2023-07-31T06:46:26;7.22;;;4.65;;
8281;SDS011;25606;42.686;23.136;2023-07-31T06:48:53;7.53;;;5.03;;
8281;SDS011;25606;42.686;23.136;2023-07-31T06:51:21;8.55;;;5.47;;
8281;SDS011;25606;42.686;23.136;2023-07-31T06:53:49;7.37;;;4.77;;
8281;SDS011;25606;42.686;23.136;2023-07-31T06:56:17;9.00;;;5.20;;
8281;SDS011;25606;42.686;23.136;2023-07-31T06:58:44;8.88;;;4.35;;
8281;SDS011;25606;42.686;23.136;2023-07-31T07:01:11;12.38;;;6.13;;
8281;SDS011;25606;42.686;23.136;2023-07-31T07:03:39;11.98;;;5.40;;
8281;SDS011;25606;42.686;23.136;2023-07-31T07:06:06;11.27;;;5.40;;
8281;SDS011;25606;42.686;23.136;2023-07-31T07:08:33;17.63;;;6.75;;
8281;SDS011;25606;42.686;23.136;2023-07-31T07:11:02;14.80;;;5.82;;
8281;SDS011;25606;42.686;23.136;2023-07-31T07:13:29;18.50;;;6.60;;
8281;SDS011;25606;42.686;23.136;2023-07-31T07:15:57;19.83;;;8.40;;
8281;SDS011;25606;42.686;23.136;2023-07-31T07:18:24;19.00;;;9.88;;
8281;SDS011;25606;42.686;23.136;2023-07-31T07:20:52;24.63;;;7.90;;
8281;SDS011;25606;42.686;23.136;2023-07-31T07:23:19;18.77;;;6.88;;
8281;SDS011;25606;42.686;23.136;2023-07-31T07:25:47;12.40;;;4.80;;
8281;SDS011;25606;42.686;23.136;2023-07-31T07:28:16;13.35;;;5.10;;
8281;SDS011;25606;42.686;23.136;2023-07-31T07:30:43;7.95;;;4.15;;
8281;SDS011;25606;42.686;23.136;2023-07-31T07:33:10;10.13;;;4.57;;
8281;SDS011;25606;42.686;23.136;2023-07-31T07:35:37;8.23;;;4.45;;
8281;SDS011;25606;42.686;23.136;2023-07-31T07:38:05;10.63;;;5.20;;
8281;SDS011;25606;42.686;23.136;2023-07-31T07:40:32;6.07;;;3.20;;
8281;SDS011;25606;42.686;23.136;2023-07-31T07:42:59;14.68;;;5.65;;
8281;SDS011;25606;42.686;23.136;2023-07-31T07:45:28;15.35;;;5.57;;
8281;SDS011;25606;42.686;23.136;2023-07-31T07:47:55;10.02;;;4.80;;
8281;SDS011;25606;42.686;23.136;2023-07-31T07:50:23;9.48;;;4.47;;
8281;SDS011;25606;42.686;23.136;2023-07-31T07:52:50;9.27;;;4.68;;
8281;SDS011;25606;42.686;23.136;2023-07-31T07:55:17;8.77;;;4.00;;
8281;SDS011;25606;42.686;23.136;2023-07-31T07:57:44;10.65;;;5.53;;
8281;SDS011;25606;42.686;23.136;2023-07-31T08:00:12;11.93;;;5.22;;
8281;SDS011;25606;42.686;23.136;2023-07-31T08:02:41;11.25;;;4.35;;
8281;SDS011;25606;42.686;23.136;2023-07-31T08:05:08;18.52;;;5.90;;
8281;SDS011;25606;42.686;23.136;2023-07-31T08:07:36;21.58;;;7.75;;
8281;SDS011;25606;42.686;23.136;2023-07-31T08:10:03;20.63;;;8.05;;
8281;SDS011;25606;42.686;23.136;2023-07-31T08:12:31;23.08;;;8.68;;
8281;SDS011;25606;42.686;23.136;2023-07-31T08:14:58;17.55;;;5.65;;
8281;SDS011;25606;42.686;23.136;2023-07-31T08:17:25;22.52;;;7.20;;
8281;SDS011;25606;42.686;23.136;2023-07-31T08:19:54;16.75;;;5.05;;
8281;SDS011;25606;42.686;23.136;2023-07-31T08:22:23;9.70;;;4.10;;
8281;SDS011;25606;42.686;23.136;2023-07-31T08:24:51;14.38;;;4.95;;
8281;SDS011;25606;42.686;23.136;2023-07-31T08:27:18;13.63;;;4.85;;
8281;SDS011;25606;42.686;23.136;2023-07-31T08:29:45;7.30;;;3.78;;
8281;SDS011;25606;42.686;23.136;2023-07-31T08:32:13;10.88;;;4.60;;
8281;SDS011;25606;42.686;23.136;2023-07-31T08:34:40;12.80;;;4.97;;
8281;SDS011;25606;42.686;23.136;2023-07-31T08:37:09;12.43;;;4.93;;
8281;SDS011;25606;42.686;23.136;2023-07-31T08:39:36;11.93;;;4.90;;
8281;SDS011;25606;42.686;23.136;2023-07-31T08:42:07;15.75;;;5.32;;
8281;SDS011;25606;42.686;23.136;2023-07-31T08:44:34;21.50;;;8.20;;
8281;SDS011;25606;42.686;23.136;2023-07-31T08:47:02;28.52;;;17.23;;
8281;SDS011;25606;42.686;23.136;2023-07-31T08:49:30;54.47;;;47.53;;
8281;SDS011;25606;42.686;23.136;2023-07-31T08:51:57;51.65;;;47.03;;
8281;SDS011;25606;42.686;23.136;2023-07-31T08:54:26;29.40;;;20.90;;
8281;SDS011;25606;42.686;23.136;2023-07-31T08:56:56;17.80;;;12.55;;
8281;SDS011;25606;42.686;23.136;2023-07-31T08:59:24;15.60;;;9.50;;
8281;SDS011;25606;42.686;23.136;2023-07-31T09:01:53;24.30;;;15.20;;
8281;SDS011;25606;42.686;23.136;2023-07-31T09:04:21;32.63;;;23.00;;
8281;SDS011;25606;42.686;23.136;2023-07-31T09:06:50;26.50;;;16.95;;
8281;SDS011;25606;42.686;23.136;2023-07-31T09:09:18;21.02;;;12.48;;
8281;SDS011;25606;42.686;23.136;2023-07-31T09:11:48;15.50;;;5.10;;
8281;SDS011;25606;42.686;23.136;2023-07-31T09:14:16;18.42;;;5.90;;
8281;SDS011;25606;42.686;23.136;2023-07-31T09:16:54;20.33;;;9.80;;
8281;SDS011;25606;42.686;23.136;2023-07-31T09:19:25;27.83;;;15.98;;
8281;SDS011;25606;42.686;23.136;2023-07-31T09:21:52;21.75;;;13.55;;
8281;SDS011;25606;42.686;23.136;2023-07-31T09:24:26;28.20;;;22.65;;
8281;SDS011;25606;42.686;23.136;2023-07-31T09:26:56;24.52;;;13.80;;
8281;SDS011;25606;42.686;23.136;2023-07-31T09:29:24;50.95;;;46.13;;
8281;SDS011;25606;42.686;23.136;2023-07-31T09:31:52;42.83;;;37.05;;
8281;SDS011;25606;42.686;23.136;2023-07-31T09:34:20;22.65;;;9.82;;
8281;SDS011;25606;42.686;23.136;2023-07-31T09:36:48;18.60;;;10.88;;
8281;SDS011;25606;42.686;23.136;2023-07-31T09:39:16;21.77;;;14.15;;
8281;SDS011;25606;42.686;23.136;2023-07-31T09:41:46;50.97;;;43.33;;
8281;SDS011;25606;42.686;23.136;2023-07-31T09:44:15;93.68;;;86.68;;
8281;SDS011;25606;42.686;23.136;2023-07-31T09:46:43;110.15;;;101.90;;
8281;SDS011;25606;42.686;23.136;2023-07-31T09:49:10;155.00;;;142.93;;
8281;SDS011;25606;42.686;23.136;2023-07-31T09:51:38;130.00;;;120.20;;
8281;SDS011;25606;42.686;23.136;2023-07-31T09:54:10;183.98;;;170.80;;
8281;SDS011;25606;42.686;23.136;2023-07-31T09:56:41;187.38;;;173.40;;
8281;SDS011;25606;42.686;23.136;2023-07-31T09:59:10;190.57;;;177.27;;
8281;SDS011;25606;42.686;23.136;2023-07-31T10:01:40;239.05;;;221.23;;
8281;SDS011;25606;42.686;23.136;2023-07-31T10:04:08;205.82;;;190.35;;
8281;SDS011;25606;42.686;23.136;2023-07-31T10:06:36;162.55;;;150.85;;
8281;SDS011;25606;42.686;23.136;2023-07-31T10:09:04;149.35;;;139.07;;
8281;SDS011;25606;42.686;23.136;2023-07-31T10:11:33;119.45;;;110.78;;
8281;SDS011;25606;42.686;23.136;2023-07-31T10:14:01;165.73;;;153.00;;
8281;SDS011;25606;42.686;23.136;2023-07-31T10:16:28;185.05;;;171.43;;
8281;SDS011;25606;42.686;23.136;2023-07-31T10:18:58;109.72;;;102.20;;
8281;SDS011;25606;42.686;23.136;2023-07-31T10:21:26;80.78;;;74.70;;
8281;SDS011;25606;42.686;23.136;2023-07-31T10:23:54;30.10;;;25.58;;
8281;SDS011;25606;42.686;23.136;2023-07-31T10:26:22;22.90;;;8.70;;
8281;SDS011;25606;42.686;23.136;2023-07-31T10:28:50;24.08;;;10.20;;
8281;SDS011;25606;42.686;23.136;2023-07-31T10:31:18;28.77;;;22.48;;
8281;SDS011;25606;42.686;23.136;2023-07-31T10:33:46;92.00;;;84.63;;
8281;SDS011;25606;42.686;23.136;2023-07-31T10:36:15;97.72;;;90.40;;
8281;SDS011;25606;42.686;23.136;2023-07-31T10:38:43;89.07;;;81.75;;
8281;SDS011;25606;42.686;23.136;2023-07-31T10:41:11;119.68;;;110.22;;
8281;SDS011;25606;42.686;23.136;2023-07-31T10:43:38;162.45;;;150.32;;
8281;SDS011;25606;42.686;23.136;2023-07-31T10:46:06;167.30;;;155.30;;
8281;SDS011;25606;42.686;23.136;2023-07-31T10:48:34;209.68;;;194.30;;
8281;SDS011;25606;42.686;23.136;2023-07-31T10:51:06;242.45;;;225.10;;
8281;SDS011;25606;42.686;23.136;2023-07-31T10:53:36;231.32;;;215.15;;
8281;SDS011;25606;42.686;23.136;2023-07-31T10:56:04;236.05;;;218.88;;
8281;SDS011;25606;42.686;23.136;2023-07-31T10:58:31;234.50;;;217.32;;
8281;SDS011;25606;42.686;23.136;2023-07-31T11:01:00;256.33;;;237.63;;
8281;SDS011;25606;42.686;23.136;2023-07-31T11:03:40;243.27;;;226.43;;
8281;SDS011;25606;42.686;23.136;2023-07-31T11:06:07;201.48;;;187.23;;
8281;SDS011;25606;42.686;23.136;2023-07-31T11:08:41;167.27;;;155.73;;
8281;SDS011;25606;42.686;23.136;2023-07-31T11:11:09;144.40;;;133.43;;
8281;SDS011;25606;42.686;23.136;2023-07-31T11:13:40;172.90;;;160.70;;
8281;SDS011;25606;42.686;23.136;2023-07-31T11:16:08;192.43;;;178.38;;
8281;SDS011;25606;42.686;23.136;2023-07-31T11:18:35;215.88;;;201.18;;
8281;SDS011;25606;42.686;23.136;2023-07-31T11:21:02;212.43;;;196.73;;
8281;SDS011;25606;42.686;23.136;2023-07-31T11:23:30;189.77;;;175.73;;
8281;SDS011;25606;42.686;23.136;2023-07-31T11:26:00;139.27;;;128.40;;
8281;SDS011;25606;42.686;23.136;2023-07-31T11:28:31;148.75;;;137.70;;
8281;SDS011;25606;42.686;23.136;2023-07-31T11:30:59;145.68;;;134.85;;
8281;SDS011;25606;42.686;23.136;2023-07-31T11:33:27;157.45;;;146.43;;
8281;SDS011;25606;42.686;23.136;2023-07-31T11:35:54;196.60;;;181.48;;
8281;SDS011;25606;42.686;23.136;2023-07-31T11:38:22;222.60;;;206.50;;
8281;SDS011;25606;42.686;23.136;2023-07-31T11:40:49;255.07;;;235.77;;
8281;SDS011;25606;42.686;23.136;2023-07-31T11:43:18;297.27;;;275.60;;
8281;SDS011;25606;42.686;23.136;2023-07-31T11:45:46;297.27;;;275.75;;
8281;SDS011;25606;42.686;23.136;2023-07-31T11:48:21;340.80;;;316.17;;
8281;SDS011;25606;42.686;23.136;2023-07-31T11:50:49;355.55;;;330.38;;
8281;SDS011;25606;42.686;23.136;2023-07-31T11:53:17;328.58;;;304.85;;
8281;SDS011;25606;42.686;23.136;2023-07-31T11:55:46;311.08;;;287.70;;
8281;SDS011;25606;42.686;23.136;2023-07-31T11:58:13;323.13;;;298.98;;
8281;SDS011;25606;42.686;23.136;2023-07-31T12:00:43;294.95;;;273.52;;
8281;SDS011;25606;42.686;23.136;2023-07-31T12:03:11;330.27;;;302.38;;
8281;SDS011;25606;42.686;23.136;2023-07-31T12:05:38;299.05;;;277.63;;
8281;SDS011;25606;42.686;23.136;2023-07-31T12:08:09;318.83;;;295.42;;
8281;SDS011;25606;42.686;23.136;2023-07-31T12:10:37;327.88;;;303.60;;
8281;SDS011;25606;42.686;23.136;2023-07-31T12:13:08;309.17;;;287.77;;
8281;SDS011;25606;42.686;23.136;2023-07-31T12:15:39;295.27;;;274.40;;
8281;SDS011;25606;42.686;23.136;2023-07-31T12:18:08;268.70;;;249.38;;
8281;SDS011;25606;42.686;23.136;2023-07-31T12:20:39;197.75;;;183.85;;
8281;SDS011;25606;42.686;23.136;2023-07-31T12:23:12;174.13;;;161.85;;
8281;SDS011;25606;42.686;23.136;2023-07-31T12:25:39;140.23;;;129.75;;
8281;SDS011;25606;42.686;23.136;2023-07-31T12:28:07;148.25;;;137.38;;
8281;SDS011;25606;42.686;23.136;2023-07-31T12:30:37;186.73;;;172.50;;
8281;SDS011;25606;42.686;23.136;2023-07-31T12:33:05;200.18;;;185.55;;
8281;SDS011;25606;42.686;23.136;2023-07-31T12:35:38;135.50;;;125.38;;
8281;SDS011;25606;42.686;23.136;2023-07-31T12:38:05;113.13;;;104.28;;
8281;SDS011;25606;42.686;23.136;2023-07-31T12:40:32;52.17;;;44.63;;
8281;SDS011;25606;42.686;23.136;2023-07-31T12:43:03;36.22;;;23.52;;
8281;SDS011;25606;42.686;23.136;2023-07-31T12:45:30;53.38;;;45.35;;
8281;SDS011;25606;42.686;23.136;2023-07-31T12:47:58;147.35;;;134.77;;
8281;SDS011;25606;42.686;23.136;2023-07-31T12:50:25;201.02;;;185.23;;
8281;SDS011;25606;42.686;23.136;2023-07-31T12:52:54;254.07;;;234.40;;
8281;SDS011;25606;42.686;23.136;2023-07-31T12:55:21;283.98;;;261.77;;
8281;SDS011;25606;42.686;23.136;2023-07-31T12:57:49;307.98;;;284.63;;
8281;SDS011;25606;42.686;23.136;2023-07-31T13:00:16;312.63;;;290.23;;
8281;SDS011;25606;42.686;23.136;2023-07-31T13:02:43;192.68;;;177.75;;
8281;SDS011;25606;42.686;23.136;2023-07-31T13:05:10;138.00;;;128.13;;
8281;SDS011;25606;42.686;23.136;2023-07-31T13:07:38;99.07;;;91.30;;
8281;SDS011;25606;42.686;23.136;2023-07-31T13:10:07;93.60;;;85.65;;
8281;SDS011;25606;42.686;23.136;2023-07-31T13:12:35;62.72;;;54.75;;
8281;SDS011;25606;42.686;23.136;2023-07-31T13:15:02;70.53;;;61.92;;
8281;SDS011;25606;42.686;23.136;2023-07-31T13:17:29;120.57;;;110.28;;
8281;SDS011;25606;42.686;23.136;2023-07-31T13:19:57;197.80;;;182.40;;
8281;SDS011;25606;42.686;23.136;2023-07-31T13:22:24;217.93;;;201.63;;
8281;SDS011;25606;42.686;23.136;2023-07-31T13:24:51;227.20;;;210.13;;
8281;SDS011;25606;42.686;23.136;2023-07-31T13:27:20;236.82;;;219.38;;
8281;SDS011;25606;42.686;23.136;2023-07-31T13:29:47;229.63;;;213.52;;
8281;SDS011;25606;42.686;23.136;2023-07-31T13:32:15;257.75;;;238.35;;
8281;SDS011;25606;42.686;23.136;2023-07-31T13:34:43;248.13;;;229.98;;
8281;SDS011;25606;42.686;23.136;2023-07-31T13:37:10;273.65;;;253.32;;
8281;SDS011;25606;42.686;23.136;2023-07-31T13:39:38;287.58;;;265.90;;
8281;SDS011;25606;42.686;23.136;2023-07-31T13:42:05;326.20;;;302.45;;
8281;SDS011;25606;42.686;23.136;2023-07-31T13:44:34;366.70;;;340.15;;
8281;SDS011;25606;42.686;23.136;2023-07-31T13:47:02;415.42;;;386.98;;
8281;SDS011;25606;42.686;23.136;2023-07-31T13:49:29;343.63;;;319.48;;
8281;SDS011;25606;42.686;23.136;2023-07-31T13:51:57;356.30;;;330.90;;
8281;SDS011;25606;42.686;23.136;2023-07-31T13:54:24;345.98;;;321.75;;
8281;SDS011;25606;42.686;23.136;2023-07-31T13:56:52;227.13;;;210.68;;
8281;SDS011;25606;42.686;23.136;2023-07-31T13:59:19;251.07;;;233.27;;
8281;SDS011;25606;42.686;23.136;2023-07-31T14:01:48;151.55;;;140.50;;
8281;SDS011;25606;42.686;23.136;2023-07-31T14:04:16;46.03;;;39.05;;
8281;SDS011;25606;42.686;23.136;2023-07-31T14:06:44;70.95;;;65.35;;
8281;SDS011;25606;42.686;23.136;2023-07-31T14:09:13;103.43;;;95.22;;
8281;SDS011;25606;42.686;23.136;2023-07-31T14:11:40;178.98;;;165.73;;
8281;SDS011;25606;42.686;23.136;2023-07-31T14:14:08;233.75;;;216.85;;
8281;SDS011;25606;42.686;23.136;2023-07-31T14:16:36;221.70;;;205.63;;
8281;SDS011;25606;42.686;23.136;2023-07-31T14:19:04;284.60;;;264.50;;
8281;SDS011;25606;42.686;23.136;2023-07-31T14:21:32;390.23;;;364.42;;
8281;SDS011;25606;42.686;23.136;2023-07-31T14:24:00;349.52;;;326.38;;